createdAt,value
2018-03-01T00:00:53.751Z,17.42
2018-03-01T00:03:22.141Z,18.42
2018-03-01T00:05:50.521Z,22.48
2018-03-01T00:08:18.925Z,19.95
2018-03-01T00:10:46.560Z,18.83
2018-03-01T00:13:14.188Z,18.62
2018-03-01T00:15:41.855Z,19.12
2018-03-01T00:18:09.494Z,19.55
2018-03-01T00:20:37.117Z,19.25
2018-03-01T00:23:04.709Z,21.60
2018-03-01T00:25:32.333Z,18.98
2018-03-01T00:28:00.705Z,19.08
2018-03-01T00:30:29.102Z,17.40
2018-03-01T00:32:57.549Z,20.77
2018-03-01T00:35:25.120Z,18.35
2018-03-01T00:37:53.502Z,17.27
2018-03-01T00:40:21.858Z,18.33
2018-03-01T00:42:49.434Z,18.75
2018-03-01T00:45:17.045Z,19.90
2018-03-01T00:47:44.676Z,17.58
2018-03-01T00:50:13.023Z,18.00
2018-03-01T00:52:40.618Z,19.10
2018-03-01T00:55:08.257Z,19.20
2018-03-01T00:57:35.837Z,19.27
2018-03-01T01:00:03.415Z,20.58
2018-03-01T01:02:31.017Z,21.25
2018-03-01T01:04:58.645Z,19.92
2018-03-01T01:07:26.237Z,18.12
2018-03-01T01:09:53.808Z,20.42
2018-03-01T01:12:21.501Z,18.85
2018-03-01T01:14:49.053Z,17.70
2018-03-01T01:17:17.435Z,17.35
2018-03-01T01:19:45.785Z,19.00
2018-03-01T01:22:13.418Z,18.67
2018-03-01T01:24:41.005Z,17.73
2018-03-01T01:27:08.642Z,18.85
2018-03-01T01:29:36.246Z,19.08
2018-03-01T01:32:03.873Z,16.90
2018-03-01T01:34:31.542Z,19.33
2018-03-01T01:36:59.134Z,18.08
2018-03-01T01:39:26.707Z,19.30
2018-03-01T01:41:54.332Z,18.27
2018-03-01T01:44:21.931Z,17.33
2018-03-01T01:46:49.543Z,18.52
2018-03-01T01:49:17.168Z,18.73
2018-03-01T01:51:45.501Z,18.40
2018-03-01T01:54:13.116Z,19.00
2018-03-01T01:56:41.469Z,16.30
2018-03-01T01:59:09.081Z,17.23
2018-03-01T02:01:36.690Z,18.40
2018-03-01T02:04:04.291Z,20.15
2018-03-01T02:06:31.959Z,19.02
2018-03-01T02:08:59.531Z,17.90
2018-03-01T02:11:27.139Z,16.50
2018-03-01T02:13:56.742Z,18.25
2018-03-01T02:16:26.507Z,18.75
2018-03-01T02:18:56.362Z,17.80
2018-03-01T02:21:26.070Z,17.83
2018-03-01T02:23:55.915Z,18.95
2018-03-01T02:26:26.543Z,17.77
2018-03-01T02:28:57.337Z,17.95
2018-03-01T02:31:27.139Z,19.10
2018-03-01T02:34:00.103Z,16.60
2018-03-01T02:36:35.844Z,15.65
2018-03-01T02:39:06.454Z,17.30
2018-03-01T02:41:37.218Z,18.55
2018-03-01T02:44:07.902Z,16.52
2018-03-01T02:46:37.333Z,17.50
2018-03-01T02:49:06.981Z,16.77
2018-03-01T02:51:36.825Z,16.83
2018-03-01T02:54:08.574Z,17.25
2018-03-01T02:56:39.204Z,18.17
2018-03-01T02:59:08.694Z,17.75
2018-03-01T03:01:38.351Z,17.90
2018-03-01T03:04:08.184Z,18.75
2018-03-01T03:06:38.587Z,16.42
2018-03-01T03:09:08.390Z,18.27
2018-03-01T03:11:38.026Z,17.42
2018-03-01T03:14:08.670Z,18.00
2018-03-01T03:16:39.262Z,18.10
2018-03-01T03:19:09.102Z,18.98
2018-03-01T03:21:39.804Z,18.02
2018-03-01T03:24:09.474Z,15.27
2018-03-01T03:26:40.455Z,16.87
2018-03-01T03:29:10.011Z,17.52
2018-03-01T03:31:40.745Z,18.20
2018-03-01T03:34:11.215Z,17.65
2018-03-01T03:36:41.112Z,18.25
2018-03-01T03:39:11.996Z,15.48
2018-03-01T03:41:41.874Z,18.77
2018-03-01T03:44:11.538Z,18.40
2018-03-01T03:46:43.744Z,15.63
2018-03-01T03:49:13.389Z,15.57
2018-03-01T03:51:43.208Z,16.62
2018-03-01T03:54:13.855Z,15.77
2018-03-01T03:56:45.233Z,16.67
2018-03-01T03:59:15.852Z,16.15
2018-03-01T04:01:46.514Z,17.52
2018-03-01T04:04:16.416Z,16.85
2018-03-01T04:06:47.007Z,17.60
2018-03-01T04:09:17.813Z,15.30
2018-03-01T04:11:47.423Z,15.48
2018-03-01T04:14:17.369Z,16.45
2018-03-01T04:16:47.329Z,18.30
2018-03-01T04:19:17.979Z,18.23
2018-03-01T04:21:47.766Z,17.00
2018-03-01T04:24:17.560Z,15.20
2018-03-01T04:26:48.083Z,15.35
2018-03-01T04:29:18.053Z,19.70
2018-03-01T04:31:47.837Z,16.45
2018-03-01T04:34:18.576Z,16.90
2018-03-01T04:36:49.040Z,17.35
2018-03-01T04:39:20.092Z,16.02
2018-03-01T04:41:49.758Z,15.45
2018-03-01T04:44:20.365Z,17.50
2018-03-01T04:46:49.967Z,16.87
2018-03-01T04:49:19.657Z,18.77
2018-03-01T04:51:49.510Z,17.83
2018-03-01T04:54:19.956Z,17.30
2018-03-01T04:56:51.029Z,15.18
2018-03-01T04:59:20.591Z,16.37
2018-03-01T05:01:51.132Z,16.58
2018-03-01T05:04:21.441Z,15.27
2018-03-01T05:06:51.135Z,16.08
2018-03-01T05:09:18.778Z,16.35
2018-03-01T05:11:46.377Z,19.42
2018-03-01T05:14:14.739Z,17.75
2018-03-01T05:16:42.330Z,16.52
2018-03-01T05:19:10.653Z,17.62
2018-03-01T05:21:38.291Z,16.10
2018-03-01T05:24:05.862Z,17.48
2018-03-01T05:26:33.437Z,16.73
2018-03-01T05:29:01.836Z,16.62
2018-03-01T05:31:29.411Z,17.08
2018-03-01T05:33:57.084Z,16.30
2018-03-01T05:36:25.441Z,16.12
2018-03-01T05:38:53.801Z,16.15
2018-03-01T05:41:21.410Z,16.92
2018-03-01T05:43:49.757Z,12.98
2018-03-01T05:46:17.367Z,14.43
2018-03-01T05:48:45.699Z,16.73
2018-03-01T05:51:13.269Z,16.77
2018-03-01T05:53:40.909Z,18.42
2018-03-01T05:56:08.478Z,16.80
2018-03-01T05:58:36.090Z,16.75
2018-03-01T06:01:04.422Z,17.92
2018-03-01T06:03:32.026Z,15.40
2018-03-01T06:06:00.385Z,16.12
2018-03-01T06:08:27.951Z,17.98
2018-03-01T06:10:56.429Z,17.10
2018-03-01T06:13:23.985Z,16.33
2018-03-01T06:15:51.546Z,18.00
2018-03-01T06:18:19.148Z,15.98
2018-03-01T06:20:46.722Z,16.77
2018-03-01T06:23:14.324Z,15.57
2018-03-01T06:25:41.935Z,16.60
2018-03-01T06:28:09.552Z,16.40
2018-03-01T06:30:37.122Z,16.52
2018-03-01T06:33:05.452Z,15.45
2018-03-01T06:35:33.062Z,17.23
2018-03-01T06:38:00.674Z,17.10
2018-03-01T06:40:28.288Z,17.10
2018-03-01T06:42:56.616Z,17.23
2018-03-01T06:45:24.214Z,17.00
2018-03-01T06:47:51.774Z,17.27
2018-03-01T06:50:19.374Z,15.82
2018-03-01T06:52:47.005Z,17.02
2018-03-01T06:55:14.608Z,17.23
2018-03-01T06:57:42.211Z,17.25
2018-03-01T07:00:10.113Z,16.92
2018-03-01T07:02:37.811Z,18.87
2018-03-01T07:05:05.450Z,18.60
2018-03-01T07:07:33.077Z,18.25
2018-03-01T07:10:00.689Z,18.10
2018-03-01T07:12:28.285Z,16.65
2018-03-01T07:14:56.842Z,20.58
2018-03-01T07:17:33.505Z,18.37
2018-03-01T07:20:01.096Z,16.42
2018-03-01T07:22:28.765Z,18.33
2018-03-01T07:24:56.348Z,17.02
2018-03-01T07:27:23.942Z,18.40
2018-03-01T07:29:51.509Z,16.40
2018-03-01T07:32:19.132Z,18.05
2018-03-01T07:34:46.703Z,19.80
2018-03-01T07:37:16.025Z,17.58
2018-03-01T07:39:43.648Z,17.92
2018-03-01T07:42:11.261Z,16.55
2018-03-01T07:44:38.894Z,17.62
2018-03-01T07:47:09.472Z,17.75
2018-03-01T07:49:37.871Z,18.98
2018-03-01T07:52:05.517Z,18.65
2018-03-01T07:54:33.138Z,18.02
2018-03-01T07:57:01.479Z,17.20
2018-03-01T07:59:29.129Z,19.52
2018-03-01T08:01:56.806Z,17.77
2018-03-01T08:04:24.392Z,17.00
2018-03-01T08:06:52.860Z,18.37
2018-03-01T08:09:20.689Z,19.55
2018-03-01T08:11:48.303Z,18.48
2018-03-01T08:14:16.653Z,19.35
2018-03-01T08:16:44.290Z,17.77
2018-03-01T08:19:11.885Z,16.83
2018-03-01T08:21:39.477Z,19.23
2018-03-01T08:24:07.904Z,16.55
2018-03-01T08:26:35.586Z,18.48
2018-03-01T08:29:03.165Z,19.58
2018-03-01T08:31:30.790Z,19.15
2018-03-01T08:33:58.403Z,22.25
2018-03-01T08:36:26.049Z,18.70
2018-03-01T08:38:53.794Z,17.65
2018-03-01T08:41:21.378Z,18.10
2018-03-01T08:43:49.067Z,17.23
2018-03-01T08:46:16.725Z,17.90
2018-03-01T08:48:44.353Z,17.42
2018-03-01T08:51:11.954Z,19.50
2018-03-01T08:53:40.332Z,19.62
2018-03-01T08:56:08.709Z,19.27
2018-03-01T08:58:36.378Z,18.48
2018-03-01T09:01:04.746Z,18.45
2018-03-01T09:03:33.152Z,20.62
2018-03-01T09:06:00.817Z,22.08
2018-03-01T09:08:29.289Z,19.08
2018-03-01T09:10:56.909Z,19.20
2018-03-01T09:13:24.523Z,20.98
2018-03-01T09:15:52.138Z,19.33
2018-03-01T09:18:19.834Z,19.87
2018-03-01T09:20:47.442Z,24.83
2018-03-01T09:23:15.550Z,20.30
2018-03-01T09:25:43.926Z,19.95
2018-03-01T09:28:12.342Z,19.60
2018-03-01T09:30:40.010Z,18.35
2018-03-01T09:33:07.672Z,20.20
2018-03-01T09:35:35.478Z,20.95
2018-03-01T09:38:03.154Z,19.75
2018-03-01T09:40:31.589Z,21.92
2018-03-01T09:42:59.177Z,20.52
2018-03-01T09:45:26.781Z,18.48
2018-03-01T09:47:55.242Z,22.02
2018-03-01T09:50:22.942Z,20.33
2018-03-01T09:52:50.513Z,20.48
2018-03-01T09:55:18.294Z,19.87
2018-03-01T09:57:46.013Z,19.45
2018-03-01T10:00:13.634Z,20.70
2018-03-01T10:02:41.233Z,21.02
2018-03-01T10:05:09.646Z,19.92
2018-03-01T10:07:39.037Z,20.05
2018-03-01T10:10:06.999Z,19.83
2018-03-01T10:12:35.432Z,20.00
2018-03-01T10:15:03.034Z,19.58
2018-03-01T10:17:30.700Z,21.23
2018-03-01T10:19:58.276Z,19.45
2018-03-01T10:22:25.881Z,20.00
2018-03-01T10:24:53.471Z,20.67
2018-03-01T10:27:21.824Z,21.20
2018-03-01T10:29:49.589Z,21.23
2018-03-01T10:32:17.256Z,17.85
2018-03-01T10:34:45.695Z,19.27
2018-03-01T10:37:13.759Z,19.02
2018-03-01T10:39:41.382Z,18.40
2018-03-01T10:42:09.084Z,18.90
2018-03-01T10:44:36.709Z,19.48
2018-03-01T10:47:05.120Z,19.37
2018-03-01T10:49:33.491Z,19.55
2018-03-01T10:52:02.229Z,19.83
2018-03-01T10:54:29.838Z,19.08
2018-03-01T10:56:58.220Z,20.12
2018-03-01T10:59:26.563Z,20.55
2018-03-01T11:01:54.228Z,19.52
2018-03-01T11:04:21.930Z,22.33
2018-03-01T11:13:11.055Z,20.33
2018-03-01T11:15:38.654Z,19.80
2018-03-01T11:18:06.444Z,19.67
2018-03-01T11:20:34.000Z,20.40
2018-03-01T11:23:01.617Z,19.25
2018-03-01T11:25:29.200Z,20.45
2018-03-01T11:27:56.760Z,20.08
2018-03-01T11:30:24.482Z,20.85
2018-03-01T11:32:52.071Z,20.50
2018-03-01T11:35:19.668Z,22.17
2018-03-01T11:37:47.220Z,20.62
2018-03-01T11:40:14.872Z,20.17
2018-03-01T11:42:42.437Z,21.58
2018-03-01T11:45:10.292Z,19.75
2018-03-01T11:47:37.996Z,19.62
2018-03-01T11:50:06.353Z,19.40
2018-03-01T11:52:33.961Z,18.77
2018-03-01T11:55:01.542Z,20.37
2018-03-01T11:57:29.142Z,20.40
2018-03-01T11:59:56.706Z,21.00
2018-03-01T12:02:24.401Z,22.52
2018-03-01T12:04:52.792Z,21.02
2018-03-01T12:07:20.401Z,22.48
2018-03-01T12:09:48.000Z,21.35
2018-03-01T12:12:15.579Z,22.10
2018-03-01T12:14:43.189Z,22.13
2018-03-01T12:17:10.932Z,20.85
2018-03-01T12:19:38.592Z,23.77
2018-03-01T12:22:06.196Z,20.88
2018-03-01T12:24:33.932Z,19.85
2018-03-01T12:27:01.537Z,20.33
2018-03-01T12:29:29.253Z,23.48
2018-03-01T12:31:56.857Z,22.48
2018-03-01T12:34:25.204Z,21.75
2018-03-01T12:36:52.952Z,21.92
2018-03-01T12:39:20.548Z,20.55
2018-03-01T12:41:48.934Z,21.17
2018-03-01T12:44:16.913Z,20.70
2018-03-01T12:46:45.311Z,21.52
2018-03-01T12:49:12.884Z,20.80
2018-03-01T12:51:40.474Z,21.80
2018-03-01T12:54:13.318Z,22.92
2018-03-01T12:56:40.976Z,22.92
2018-03-01T12:59:08.885Z,20.70
2018-03-01T13:01:36.646Z,20.65
2018-03-01T13:04:05.325Z,21.55
2018-03-01T13:06:33.130Z,21.62
2018-03-01T13:09:01.657Z,21.83
2018-03-01T13:11:29.235Z,20.88
2018-03-01T13:13:56.838Z,20.70
2018-03-01T13:16:24.700Z,21.15
2018-03-01T13:18:52.412Z,20.90
2018-03-01T13:21:20.377Z,21.70
2018-03-01T13:23:48.139Z,21.27
2018-03-01T13:26:17.772Z,21.05
2018-03-01T13:28:45.506Z,21.90
2018-03-01T13:31:16.507Z,22.27
2018-03-01T13:33:45.033Z,19.08
2018-03-01T13:36:13.073Z,20.73
2018-03-01T13:38:40.822Z,21.10
2018-03-01T13:41:18.684Z,23.98
2018-03-01T13:43:47.322Z,21.45
2018-03-01T13:46:20.677Z,19.85
2018-03-01T13:48:49.228Z,20.25
2018-03-01T13:51:17.635Z,21.02
2018-03-01T13:53:45.229Z,22.00
2018-03-01T13:56:12.872Z,19.08
2018-03-01T13:58:40.547Z,19.52
2018-03-01T14:01:08.098Z,19.37
2018-03-01T14:03:35.712Z,21.87
2018-03-01T14:06:24.211Z,22.67
2018-03-01T14:08:55.327Z,20.02
2018-03-01T14:11:22.936Z,20.92
2018-03-01T14:13:50.525Z,21.85
2018-03-01T14:16:18.945Z,18.87
2018-03-01T14:19:02.215Z,20.33
2018-03-01T14:21:42.570Z,20.77
2018-03-01T14:24:10.840Z,20.77
2018-03-01T14:26:44.150Z,20.37
2018-03-01T14:29:20.425Z,21.37
2018-03-01T14:31:48.843Z,20.27
2018-03-01T14:34:17.064Z,21.00
2018-03-01T14:36:54.051Z,20.67
2018-03-01T14:39:22.129Z,20.55
2018-03-01T14:41:50.368Z,20.05
2018-03-01T14:44:17.976Z,21.42
2018-03-01T14:46:45.533Z,20.20
2018-03-01T14:49:13.146Z,21.90
2018-03-01T14:51:40.777Z,21.35
2018-03-01T14:54:09.105Z,20.92
2018-03-01T14:56:37.439Z,20.40
2018-03-01T14:59:05.793Z,19.90
2018-03-01T15:01:33.381Z,21.58
2018-03-01T15:04:05.109Z,20.92
2018-03-01T15:06:32.766Z,19.75
2018-03-01T15:09:04.420Z,21.23
2018-03-01T15:11:32.012Z,22.87
2018-03-01T15:13:59.633Z,19.62
2018-03-01T15:16:27.197Z,21.75
2018-03-01T15:18:54.889Z,20.27
2018-03-01T15:21:23.705Z,19.92
2018-03-01T15:23:51.288Z,22.42
2018-03-01T15:26:18.892Z,22.42
2018-03-01T15:28:46.594Z,19.75
2018-03-01T15:31:14.182Z,20.00
2018-03-01T15:33:41.766Z,21.20
2018-03-01T15:36:09.366Z,20.80
2018-03-01T15:38:37.713Z,21.83
2018-03-01T15:41:06.922Z,19.20
2018-03-01T15:43:34.509Z,19.60
2018-03-01T15:46:02.885Z,21.15
2018-03-01T15:48:31.264Z,20.95
2018-03-01T15:50:59.578Z,20.55
2018-03-01T15:53:27.172Z,18.50
2018-03-01T15:55:54.734Z,23.08
2018-03-01T15:58:22.306Z,19.48
2018-03-01T16:00:50.079Z,21.00
2018-03-01T16:03:18.414Z,19.52
2018-03-01T16:05:46.354Z,21.23
2018-03-01T16:08:13.952Z,21.02
2018-03-01T16:10:41.514Z,21.95
2018-03-01T16:13:09.105Z,18.73
2018-03-01T16:15:37.437Z,20.95
2018-03-01T16:18:05.814Z,21.90
2018-03-01T16:20:34.195Z,21.60
2018-03-01T16:23:01.755Z,20.37
2018-03-01T16:25:29.315Z,20.48
2018-03-01T16:27:56.903Z,20.37
2018-03-01T16:30:26.451Z,21.15
2018-03-01T16:32:54.091Z,21.33
2018-03-01T16:35:27.293Z,21.25
2018-03-01T16:37:54.929Z,20.52
2018-03-01T16:40:22.827Z,21.77
2018-03-01T16:42:51.391Z,20.75
2018-03-01T16:45:19.826Z,20.50
2018-03-01T16:47:47.383Z,20.80
2018-03-01T16:50:15.801Z,20.62
2018-03-01T16:52:43.405Z,21.55
2018-03-01T16:55:13.539Z,21.45
2018-03-01T16:57:41.155Z,20.20
2018-03-01T17:00:08.750Z,20.20
2018-03-01T17:02:37.127Z,21.05
2018-03-01T17:05:05.454Z,19.87
2018-03-01T17:07:33.042Z,20.40
2018-03-01T17:10:00.699Z,20.45
2018-03-01T17:12:28.300Z,22.10
2018-03-01T17:14:55.891Z,21.12
2018-03-01T17:17:23.503Z,22.95
2018-03-01T17:19:51.843Z,19.33
2018-03-01T17:22:19.457Z,20.62
2018-03-01T17:24:47.843Z,20.02
2018-03-01T17:27:15.401Z,21.48
2018-03-01T17:29:43.020Z,20.10
2018-03-01T17:32:10.634Z,20.80
2018-03-01T17:34:38.194Z,21.25
2018-03-01T17:37:05.799Z,21.27
2018-03-01T17:39:33.382Z,21.42
2018-03-01T17:42:00.974Z,21.12
2018-03-01T17:44:28.527Z,20.55
2018-03-01T17:46:56.957Z,20.55
2018-03-01T17:49:24.554Z,23.25
2018-03-01T17:51:52.946Z,19.62
2018-03-01T17:54:21.323Z,21.80
2018-03-01T17:56:49.675Z,21.58
2018-03-01T17:59:17.245Z,24.45
2018-03-01T18:01:45.671Z,20.40
2018-03-01T18:04:13.243Z,22.30
2018-03-01T18:06:40.867Z,20.90
2018-03-01T18:09:09.188Z,22.50
2018-03-01T18:11:36.762Z,23.20
2018-03-01T18:14:05.175Z,21.45
2018-03-01T18:16:33.550Z,22.13
2018-03-01T18:19:01.111Z,21.30
2018-03-01T18:21:29.120Z,19.83
2018-03-01T18:23:57.444Z,21.85
2018-03-01T18:26:25.797Z,22.42
2018-03-01T18:28:53.405Z,23.73
2018-03-01T18:31:21.003Z,24.05
2018-03-01T18:33:48.558Z,24.20
2018-03-01T18:36:16.203Z,23.75
2018-03-01T18:38:43.792Z,24.10
2018-03-01T18:41:11.362Z,25.90
2018-03-01T18:43:38.966Z,23.20
2018-03-01T18:46:06.533Z,24.65
2018-03-01T18:48:34.133Z,22.48
2018-03-01T18:51:01.737Z,22.85
2018-03-01T18:53:30.089Z,23.65
2018-03-01T18:55:58.471Z,24.17
2018-03-01T18:58:26.054Z,24.70
2018-03-01T19:00:53.654Z,22.77
2018-03-01T19:03:21.272Z,24.10
2018-03-01T19:05:48.838Z,23.12
2018-03-01T19:08:16.489Z,22.55
2018-03-01T19:10:44.114Z,24.77
2018-03-01T19:13:11.678Z,24.08
2018-03-01T19:15:39.253Z,24.25
2018-03-01T19:18:06.866Z,23.67
2018-03-01T19:20:35.202Z,24.33
2018-03-01T19:23:03.586Z,25.05
2018-03-01T19:25:31.206Z,25.45
2018-03-01T19:27:59.567Z,24.25
2018-03-01T19:30:27.131Z,27.30
2018-03-01T19:32:55.489Z,25.27
2018-03-01T19:35:23.136Z,26.67
2018-03-01T19:37:50.769Z,24.95
2018-03-01T19:40:18.344Z,26.02
2018-03-01T19:42:45.924Z,25.55
2018-03-01T19:45:13.538Z,23.87
2018-03-01T19:47:41.124Z,24.73
2018-03-01T19:50:08.689Z,25.98
2018-03-01T19:52:36.300Z,24.60
2018-03-01T19:55:03.897Z,26.00
2018-03-01T19:57:31.526Z,24.70
2018-03-01T19:59:59.897Z,25.60
2018-03-01T20:02:27.470Z,25.60
2018-03-01T20:04:55.834Z,24.98
2018-03-01T20:07:23.425Z,28.08
2018-03-01T20:09:51.792Z,26.30
2018-03-01T20:12:20.142Z,27.75
2018-03-01T20:14:47.753Z,25.85
2018-03-01T20:17:15.314Z,27.05
2018-03-01T20:19:42.936Z,25.62
2018-03-01T20:22:10.522Z,26.02
2018-03-01T20:24:38.911Z,26.33
2018-03-01T20:27:06.509Z,26.52
2018-03-01T20:29:34.119Z,27.08
2018-03-01T20:32:02.478Z,27.40
2018-03-01T20:34:30.075Z,29.50
2018-03-01T20:36:57.677Z,25.23
2018-03-01T20:39:25.259Z,27.20
2018-03-01T20:41:52.872Z,27.05
2018-03-01T20:44:20.490Z,23.48
2018-03-01T20:46:48.116Z,28.55
2018-03-01T20:49:15.673Z,26.33
2018-03-01T20:51:43.239Z,26.15
2018-03-01T20:54:10.833Z,26.45
2018-03-01T20:56:38.451Z,27.13
2018-03-01T20:59:06.046Z,26.48
2018-03-01T21:01:33.683Z,27.05
2018-03-01T21:04:03.888Z,26.50
2018-03-01T21:06:31.505Z,28.00
2018-03-01T21:08:59.095Z,27.37
2018-03-01T21:11:26.754Z,26.65
2018-03-01T21:13:54.412Z,29.58
2018-03-01T21:16:22.770Z,27.77
2018-03-01T21:18:50.399Z,26.00
2018-03-01T21:21:17.957Z,26.25
2018-03-01T21:23:45.515Z,30.73
2018-03-01T21:26:13.118Z,26.50
2018-03-01T21:28:40.706Z,29.92
2018-03-01T21:31:09.179Z,28.12
2018-03-01T21:33:37.591Z,30.73
2018-03-01T21:36:05.213Z,28.77
2018-03-01T21:38:32.911Z,26.25
2018-03-01T21:41:00.514Z,28.52
2018-03-01T21:43:28.113Z,30.27
2018-03-01T21:45:56.497Z,27.37
2018-03-01T21:48:24.110Z,28.87
2018-03-01T21:50:51.674Z,28.15
2018-03-01T21:53:19.298Z,29.70
2018-03-01T21:55:47.175Z,28.45
2018-03-01T21:58:14.732Z,29.52
2018-03-01T22:00:42.350Z,31.25
2018-03-01T22:03:10.694Z,28.80
2018-03-01T22:05:38.299Z,28.77
2018-03-01T22:08:06.678Z,32.03
2018-03-01T22:10:35.017Z,29.58
2018-03-01T22:13:02.630Z,29.08
2018-03-01T22:15:30.964Z,28.67
2018-03-01T22:17:58.578Z,29.90
2018-03-01T22:20:26.162Z,29.52
2018-03-01T22:22:53.808Z,27.85
2018-03-01T22:25:21.434Z,30.73
2018-03-01T22:27:49.016Z,26.95
2018-03-01T22:30:17.354Z,29.55
2018-03-01T22:32:44.954Z,28.48
2018-03-01T22:35:13.361Z,27.23
2018-03-01T22:37:40.922Z,29.98
2018-03-01T22:40:08.522Z,30.12
2018-03-01T22:42:36.125Z,30.35
2018-03-01T22:45:03.734Z,30.20
2018-03-01T22:47:31.312Z,31.73
2018-03-01T22:49:58.958Z,29.85
2018-03-01T22:52:26.523Z,28.27
2018-03-01T22:54:54.138Z,28.10
2018-03-01T22:57:21.698Z,29.40
2018-03-01T22:59:49.297Z,31.25
2018-03-01T23:02:16.903Z,30.27
2018-03-01T23:04:45.294Z,31.52
2018-03-01T23:07:13.654Z,31.62
2018-03-01T23:09:42.017Z,29.83
2018-03-01T23:12:09.609Z,31.90
2018-03-01T23:14:37.943Z,29.20
2018-03-01T23:17:05.557Z,29.17
2018-03-01T23:19:35.088Z,30.40
2018-03-01T23:22:02.692Z,27.42
2018-03-01T23:24:30.270Z,28.75
2018-03-01T23:26:57.940Z,32.05
2018-03-01T23:29:26.395Z,31.23
2018-03-01T23:31:53.988Z,32.00
2018-03-01T23:34:21.571Z,30.00
2018-03-01T23:36:49.179Z,30.05
2018-03-01T23:39:16.913Z,28.80
2018-03-01T23:41:44.526Z,28.02
2018-03-01T23:44:12.877Z,32.78
2018-03-01T23:46:40.538Z,30.73
2018-03-01T23:49:08.204Z,31.52
2018-03-01T23:51:35.792Z,31.27
2018-03-01T23:54:04.192Z,33.00
2018-03-01T23:56:31.755Z,31.02
2018-03-01T23:58:59.321Z,31.02
